createdAt,value
2019-03-19T00:01:24.828Z,0.70
2019-03-19T00:03:53.877Z,0.60
2019-03-19T00:06:22.982Z,0.60
2019-03-19T00:08:52.086Z,0.60
2019-03-19T00:11:21.178Z,0.60
2019-03-19T00:13:50.206Z,0.60
2019-03-19T00:16:19.417Z,0.50
2019-03-19T00:18:48.575Z,0.40
2019-03-19T00:21:17.675Z,0.30
2019-03-19T00:23:46.800Z,0.20
2019-03-19T00:26:15.877Z,0.20
2019-03-19T00:28:44.925Z,0.30
2019-03-19T00:31:13.953Z,0.20
2019-03-19T00:33:42.896Z,0.20
2019-03-19T00:36:11.948Z,0.20
2019-03-19T00:38:41.348Z,0.20
2019-03-19T00:41:10.326Z,0.30
2019-03-19T00:43:39.404Z,0.00
2019-03-19T00:46:08.501Z,-0.10
2019-03-19T00:48:37.620Z,-0.10
2019-03-19T00:51:06.551Z,-0.10
2019-03-19T00:53:35.644Z,0.00
2019-03-19T00:56:05.383Z,-0.10
2019-03-19T00:58:34.800Z,-0.20
2019-03-19T01:01:03.919Z,-0.30
2019-03-19T01:03:33.097Z,-0.40
2019-03-19T01:06:02.087Z,-0.30
2019-03-19T01:08:31.090Z,-0.40
2019-03-19T01:11:00.152Z,-0.60
2019-03-19T01:13:29.207Z,-0.80
2019-03-19T01:15:58.341Z,-0.70
2019-03-19T01:18:27.466Z,-0.70
2019-03-19T01:20:56.574Z,-0.80
2019-03-19T01:23:25.667Z,-0.80
2019-03-19T01:25:55.902Z,-0.80
2019-03-19T01:28:25.194Z,-0.80
2019-03-19T01:30:54.205Z,-0.80
2019-03-19T01:33:23.695Z,-0.90
2019-03-19T01:35:52.885Z,-1.00
2019-03-19T01:38:22.052Z,-0.90
2019-03-19T01:40:51.141Z,-0.90
2019-03-19T01:43:20.155Z,-0.90
2019-03-19T01:45:49.244Z,-1.00
2019-03-19T01:48:18.339Z,-0.90
2019-03-19T01:50:47.535Z,-1.00
2019-03-19T01:53:16.612Z,-0.90
2019-03-19T01:55:45.715Z,-1.10
2019-03-19T01:58:14.892Z,-1.10
2019-03-19T02:00:44.018Z,-1.10
2019-03-19T02:03:13.018Z,-1.20
2019-03-19T02:05:42.124Z,-1.20
2019-03-19T02:08:11.111Z,-1.20
2019-03-19T02:10:40.301Z,-1.20
2019-03-19T02:13:09.364Z,-1.20
2019-03-19T02:15:38.432Z,-1.30
2019-03-19T02:18:07.525Z,-1.30
2019-03-19T02:20:36.605Z,-1.30
2019-03-19T02:23:05.632Z,-1.30
2019-03-19T02:25:34.712Z,-1.30
2019-03-19T02:28:03.732Z,-1.30
2019-03-19T02:30:32.785Z,-1.30
2019-03-19T02:33:01.896Z,-1.30
2019-03-19T02:35:30.921Z,-1.40
2019-03-19T02:38:00.013Z,-1.40
2019-03-19T02:40:29.215Z,-1.50
2019-03-19T02:42:58.456Z,-1.40
2019-03-19T02:45:27.553Z,-1.50
2019-03-19T02:47:56.747Z,-1.50
2019-03-19T02:50:26.050Z,-1.50
2019-03-19T02:52:55.196Z,-1.60
2019-03-19T02:55:24.363Z,-1.60
2019-03-19T02:57:53.642Z,-1.60
2019-03-19T03:00:22.742Z,-1.70
2019-03-19T03:06:14.651Z,-1.80
2019-03-19T03:11:42.151Z,-1.80
2019-03-19T03:14:23.367Z,-1.90
2019-03-19T03:22:40.459Z,-2.10
2019-03-19T03:28:44.150Z,-1.90
2019-03-19T03:42:47.358Z,-1.90
2019-03-19T03:45:29.809Z,-2.00
2019-03-19T03:48:13.788Z,-1.90
2019-03-19T03:53:47.328Z,-2.10
2019-03-19T03:59:34.711Z,-2.20
2019-03-19T04:02:17.916Z,-2.10
2019-03-19T04:05:02.250Z,-2.10
2019-03-19T04:07:47.262Z,-2.30
2019-03-19T04:16:28.288Z,-2.30
2019-03-19T04:19:09.240Z,-2.10
2019-03-19T04:27:39.949Z,-2.30
2019-03-19T04:38:52.434Z,-2.50
2019-03-19T04:41:33.268Z,-2.40
2019-03-19T04:44:14.436Z,-2.40
2019-03-19T04:46:56.615Z,-2.50
2019-03-19T04:49:38.871Z,-2.50
2019-03-19T04:55:09.602Z,-2.30
2019-03-19T04:57:50.992Z,-2.40
2019-03-19T05:00:34.961Z,-2.40
2019-03-19T05:06:06.109Z,-2.40
2019-03-19T05:11:33.996Z,-2.50
2019-03-19T05:14:15.416Z,-2.60
2019-03-19T05:19:40.979Z,-2.70
2019-03-19T05:34:31.949Z,-2.70
2019-03-19T05:40:04.350Z,-2.90
2019-03-19T05:45:33.859Z,-2.90
2019-03-19T05:48:14.423Z,-2.90
2019-03-19T05:50:55.413Z,-2.90
2019-03-19T06:01:57.493Z,-2.80
2019-03-19T06:07:21.191Z,-2.70
2019-03-19T06:12:53.746Z,-2.60
2019-03-19T06:15:35.316Z,-2.70
2019-03-19T06:24:19.845Z,-0.20
2019-03-19T06:30:00.357Z,0.50
2019-03-19T06:41:54.996Z,0.70
2019-03-19T06:50:44.428Z,4.20
2019-03-19T06:53:13.159Z,5.00
2019-03-19T06:56:01.516Z,5.60
2019-03-19T06:58:30.736Z,6.40
2019-03-19T07:01:18.999Z,6.40
2019-03-19T07:04:00.570Z,6.60
2019-03-19T07:06:41.334Z,7.40
2019-03-19T07:09:22.640Z,8.10
2019-03-19T07:12:03.195Z,8.50
2019-03-19T07:14:43.774Z,9.10
2019-03-19T07:17:25.165Z,9.70
2019-03-19T07:20:05.826Z,10.00
2019-03-19T07:22:46.536Z,9.50
2019-03-19T07:25:27.441Z,10.10
2019-03-19T07:28:08.446Z,10.50
2019-03-19T07:30:52.307Z,10.90
2019-03-19T07:33:32.937Z,11.20
2019-03-19T07:36:12.480Z,11.40
2019-03-19T07:39:00.711Z,10.70
2019-03-19T07:41:42.368Z,10.50
2019-03-19T07:44:11.583Z,10.10
2019-03-19T07:46:40.597Z,8.20
2019-03-19T07:49:09.962Z,7.60
2019-03-19T07:51:39.016Z,6.90
2019-03-19T07:54:08.113Z,6.40
2019-03-19T07:56:37.152Z,6.30
2019-03-19T07:59:06.286Z,6.70
2019-03-19T08:01:35.283Z,7.30
2019-03-19T08:04:05.139Z,7.30
2019-03-19T08:06:34.224Z,7.60
2019-03-19T08:09:04.312Z,7.70
2019-03-19T08:11:33.608Z,7.60
2019-03-19T08:14:03.034Z,6.90
2019-03-19T08:16:32.266Z,6.40
2019-03-19T08:19:01.680Z,6.50
2019-03-19T08:21:30.807Z,6.50
2019-03-19T08:24:00.137Z,6.00
2019-03-19T08:26:29.586Z,5.80
2019-03-19T08:28:58.713Z,5.90
2019-03-19T08:31:28.195Z,5.90
2019-03-19T08:33:57.552Z,6.00
2019-03-19T08:36:26.635Z,6.20
2019-03-19T08:38:55.783Z,6.30
2019-03-19T08:41:24.780Z,6.50
2019-03-19T08:43:53.819Z,6.80
2019-03-19T08:46:25.294Z,6.80
2019-03-19T08:48:54.790Z,6.50
2019-03-19T08:51:23.866Z,6.40
2019-03-19T08:53:52.839Z,6.20
2019-03-19T08:56:21.818Z,6.30
2019-03-19T08:58:50.828Z,6.30
2019-03-19T09:01:19.966Z,6.10
2019-03-19T09:03:59.148Z,5.90
2019-03-19T09:06:28.089Z,6.20
2019-03-19T09:08:57.163Z,6.70
2019-03-19T09:11:26.074Z,6.70
2019-03-19T09:13:55.085Z,6.80
2019-03-19T09:16:24.012Z,6.80
2019-03-19T09:18:52.949Z,6.90
2019-03-19T09:21:22.055Z,6.70
2019-03-19T09:23:51.103Z,6.80
2019-03-19T09:26:20.118Z,6.80
2019-03-19T09:28:49.175Z,6.40
2019-03-19T09:31:18.162Z,6.50
2019-03-19T09:33:47.109Z,6.60
2019-03-19T09:36:18.017Z,6.80
2019-03-19T09:38:47.316Z,6.80
2019-03-19T09:41:17.769Z,6.80
2019-03-19T09:43:47.988Z,7.00
2019-03-19T09:46:18.836Z,7.10
2019-03-19T09:48:49.248Z,7.10
2019-03-19T09:51:19.663Z,7.20
2019-03-19T09:53:57.646Z,7.20
2019-03-19T09:56:29.895Z,6.90
2019-03-19T09:59:02.401Z,6.80
2019-03-19T10:01:34.368Z,7.00
2019-03-19T10:04:06.841Z,7.30
2019-03-19T10:06:41.301Z,7.70
2019-03-19T10:09:16.104Z,7.90
2019-03-19T10:11:49.167Z,8.10
2019-03-19T10:14:19.652Z,7.90
2019-03-19T10:16:49.446Z,7.60
2019-03-19T10:19:24.878Z,7.40
2019-03-19T10:21:55.358Z,7.20
2019-03-19T10:24:29.408Z,7.30
2019-03-19T10:27:01.791Z,7.40
2019-03-19T10:29:38.176Z,7.70
2019-03-19T10:32:11.383Z,7.90
2019-03-19T10:34:44.758Z,7.70
2019-03-19T10:37:14.168Z,7.90
2019-03-19T10:39:45.043Z,8.10
2019-03-19T10:42:17.414Z,8.30
2019-03-19T10:44:47.535Z,8.60
2019-03-19T10:47:17.121Z,8.90
2019-03-19T10:49:46.394Z,9.20
2019-03-19T10:52:15.366Z,9.30
2019-03-19T10:54:44.472Z,9.60
2019-03-19T10:57:13.473Z,9.80
2019-03-19T10:59:49.185Z,9.70
2019-03-19T11:02:13.461Z,9.90
2019-03-19T11:04:42.698Z,9.90
2019-03-19T11:07:11.895Z,9.70
2019-03-19T11:09:41.568Z,9.90
2019-03-19T11:12:10.664Z,10.00
2019-03-19T11:14:39.718Z,9.90
2019-03-19T11:17:08.833Z,9.70
2019-03-19T11:19:38.032Z,9.60
2019-03-19T11:22:07.191Z,9.40
2019-03-19T11:24:36.426Z,9.30
2019-03-19T11:27:05.532Z,9.50
2019-03-19T11:29:34.456Z,9.80
2019-03-19T11:32:04.370Z,10.10
2019-03-19T11:34:33.382Z,10.10
2019-03-19T11:37:02.603Z,9.80
2019-03-19T11:39:41.003Z,9.90
2019-03-19T11:42:11.824Z,10.00
2019-03-19T11:44:48.159Z,10.00
2019-03-19T11:47:22.011Z,10.10
2019-03-19T11:49:53.146Z,10.50
2019-03-19T11:52:22.127Z,10.60
2019-03-19T11:54:51.160Z,10.70
2019-03-19T11:57:20.162Z,10.90
2019-03-19T11:59:49.219Z,11.10
2019-03-19T12:02:25.894Z,11.10
2019-03-19T12:04:49.168Z,11.30
2019-03-19T12:07:18.291Z,11.30
2019-03-19T12:09:47.400Z,11.20
2019-03-19T12:12:26.965Z,11.30
2019-03-19T12:14:55.959Z,10.90
2019-03-19T12:17:25.061Z,10.10
2019-03-19T12:19:54.191Z,10.20
2019-03-19T12:22:23.275Z,10.20
2019-03-19T12:24:52.428Z,10.00
2019-03-19T12:27:21.535Z,10.00
2019-03-19T12:29:50.548Z,10.20
2019-03-19T12:32:19.607Z,10.50
2019-03-19T12:34:48.774Z,10.80
2019-03-19T12:37:17.854Z,10.70
2019-03-19T12:39:46.964Z,10.70
2019-03-19T12:42:16.048Z,10.80
2019-03-19T12:44:45.123Z,11.10
2019-03-19T12:47:14.219Z,11.50
2019-03-19T12:49:43.238Z,11.40
2019-03-19T12:52:12.421Z,11.50
2019-03-19T12:54:41.365Z,11.40
2019-03-19T12:57:10.375Z,11.50
2019-03-19T12:59:39.465Z,11.20
2019-03-19T13:02:08.498Z,11.10
2019-03-19T13:04:37.480Z,11.30
2019-03-19T13:07:06.451Z,11.60
2019-03-19T13:09:35.550Z,11.60
2019-03-19T13:12:04.648Z,12.10
2019-03-19T13:14:33.658Z,12.20
2019-03-19T13:17:02.672Z,11.70
2019-03-19T13:19:31.723Z,11.70
2019-03-19T13:22:00.783Z,11.70
2019-03-19T13:24:29.769Z,12.00
2019-03-19T13:26:58.795Z,12.50
2019-03-19T13:29:27.957Z,13.00
2019-03-19T13:31:57.085Z,13.60
2019-03-19T13:34:26.162Z,13.30
2019-03-19T13:36:55.223Z,14.10
2019-03-19T13:39:24.403Z,14.30
2019-03-19T13:41:53.548Z,14.70
2019-03-19T13:44:22.635Z,15.10
2019-03-19T13:46:51.872Z,15.60
2019-03-19T13:49:21.001Z,15.40
2019-03-19T13:51:50.002Z,16.00
2019-03-19T13:54:19.041Z,16.00
2019-03-19T13:56:48.135Z,15.60
2019-03-19T13:59:17.231Z,15.80
2019-03-19T14:01:46.267Z,17.00
2019-03-19T14:04:15.318Z,17.60
2019-03-19T14:06:44.288Z,17.30
2019-03-19T14:09:13.645Z,17.40
2019-03-19T14:11:42.698Z,17.20
2019-03-19T14:14:11.756Z,17.40
2019-03-19T14:16:40.824Z,17.20
2019-03-19T14:19:09.831Z,17.50
2019-03-19T14:21:38.934Z,17.90
2019-03-19T14:24:08.036Z,17.80
2019-03-19T14:26:37.022Z,18.10
2019-03-19T14:29:06.016Z,18.30
2019-03-19T14:31:35.139Z,18.50
2019-03-19T14:34:04.088Z,19.40
2019-03-19T14:36:33.204Z,19.00
2019-03-19T14:39:04.723Z,19.90
2019-03-19T14:41:33.119Z,19.40
2019-03-19T14:44:02.136Z,18.80
2019-03-19T14:46:31.187Z,18.30
2019-03-19T14:49:00.326Z,18.10
2019-03-19T14:51:29.358Z,17.10
2019-03-19T14:53:58.490Z,17.20
2019-03-19T14:56:27.468Z,17.20
2019-03-19T14:58:56.381Z,17.90
2019-03-19T15:01:25.484Z,17.60
2019-03-19T15:03:54.563Z,17.70
2019-03-19T15:06:23.584Z,16.80
2019-03-19T15:08:52.685Z,17.00
2019-03-19T15:11:21.699Z,18.60
2019-03-19T15:13:50.704Z,19.10
2019-03-19T15:16:19.931Z,19.00
2019-03-19T15:18:49.040Z,17.10
2019-03-19T15:21:18.751Z,19.40
2019-03-19T15:23:47.756Z,18.20
2019-03-19T15:26:16.762Z,18.00
2019-03-19T15:28:45.766Z,17.70
2019-03-19T15:31:15.503Z,18.00
2019-03-19T15:33:44.568Z,18.10
2019-03-19T15:36:13.664Z,19.30
2019-03-19T15:38:42.769Z,18.60
2019-03-19T15:41:11.797Z,18.10
2019-03-19T15:43:40.951Z,18.70
2019-03-19T15:46:10.079Z,18.50
2019-03-19T15:48:39.141Z,18.80
2019-03-19T15:51:08.254Z,19.20
2019-03-19T15:53:37.267Z,17.60
2019-03-19T15:56:06.425Z,17.00
2019-03-19T15:58:35.528Z,16.00
2019-03-19T16:01:04.515Z,16.40
2019-03-19T16:03:33.597Z,17.50
2019-03-19T16:06:02.683Z,18.00
2019-03-19T16:08:31.838Z,17.20
2019-03-19T16:11:00.909Z,16.70
2019-03-19T16:13:30.045Z,17.00
2019-03-19T16:15:59.169Z,17.80
2019-03-19T16:18:28.269Z,18.50
2019-03-19T16:20:57.318Z,18.20
2019-03-19T16:23:26.421Z,18.20
2019-03-19T16:25:55.499Z,18.20
2019-03-19T16:28:24.643Z,17.60
2019-03-19T16:30:54.403Z,16.40
2019-03-19T16:33:24.926Z,15.90
2019-03-19T16:35:54.106Z,16.20
2019-03-19T16:38:23.231Z,15.10
2019-03-19T16:40:52.476Z,15.80
2019-03-19T16:43:21.650Z,15.80
2019-03-19T16:45:50.703Z,15.80
2019-03-19T16:48:19.787Z,15.50
2019-03-19T16:50:48.852Z,14.00
2019-03-19T16:53:18.225Z,13.50
2019-03-19T16:55:52.309Z,12.20
2019-03-19T16:58:21.413Z,10.50
2019-03-19T17:00:51.283Z,9.40
2019-03-19T17:03:20.836Z,8.70
2019-03-19T17:05:51.358Z,8.40
2019-03-19T17:08:21.183Z,8.20
2019-03-19T17:10:50.220Z,8.00
2019-03-19T17:13:20.277Z,7.90
2019-03-19T17:15:53.818Z,7.80
2019-03-19T17:18:23.268Z,7.90
2019-03-19T17:20:52.559Z,7.60
2019-03-19T17:23:21.694Z,7.60
2019-03-19T17:25:50.812Z,7.60
2019-03-19T17:28:22.649Z,7.50
2019-03-19T17:30:51.499Z,7.40
2019-03-19T17:33:20.523Z,7.20
2019-03-19T17:35:50.761Z,7.10
2019-03-19T17:38:19.825Z,7.00
2019-03-19T17:40:48.823Z,6.90
2019-03-19T17:43:17.879Z,6.80
2019-03-19T17:45:46.983Z,6.80
2019-03-19T17:48:16.662Z,6.60
2019-03-19T17:50:46.410Z,6.50
2019-03-19T17:53:15.511Z,6.50
2019-03-19T17:55:44.504Z,6.50
2019-03-19T17:58:13.637Z,6.40
2019-03-19T18:00:43.837Z,6.30
2019-03-19T18:03:13.068Z,6.30
2019-03-19T18:05:42.223Z,6.20
2019-03-19T18:08:11.278Z,6.10
2019-03-19T18:10:40.386Z,6.10
2019-03-19T18:13:10.527Z,5.80
2019-03-19T18:15:41.254Z,5.80
2019-03-19T18:18:10.726Z,5.70
2019-03-19T18:20:39.871Z,5.60
2019-03-19T18:23:08.948Z,5.50
2019-03-19T18:25:38.100Z,5.50
2019-03-19T18:28:07.157Z,5.30
2019-03-19T18:30:36.177Z,5.20
2019-03-19T18:33:05.162Z,5.20
2019-03-19T18:35:35.043Z,5.00
2019-03-19T18:38:04.056Z,4.90
2019-03-19T18:40:33.109Z,4.80
2019-03-19T18:43:02.401Z,4.70
2019-03-19T18:45:31.404Z,4.50
2019-03-19T18:48:00.382Z,4.50
2019-03-19T18:50:31.806Z,4.40
2019-03-19T18:53:00.849Z,4.40
2019-03-19T18:55:30.123Z,4.40
2019-03-19T18:57:59.346Z,4.20
2019-03-19T19:00:28.565Z,4.10
2019-03-19T19:02:57.797Z,4.00
2019-03-19T19:05:26.874Z,3.90
2019-03-19T19:07:57.219Z,3.90
2019-03-19T19:10:26.720Z,3.90
2019-03-19T19:12:55.828Z,3.90
2019-03-19T19:15:26.919Z,3.80
2019-03-19T19:17:56.053Z,3.70
2019-03-19T19:20:25.969Z,3.70
2019-03-19T19:22:55.022Z,3.70
2019-03-19T19:25:25.044Z,3.50
2019-03-19T19:27:54.219Z,3.40
2019-03-19T19:30:23.243Z,3.30
2019-03-19T19:33:00.813Z,3.20
2019-03-19T19:35:23.362Z,3.00
2019-03-19T19:37:52.575Z,3.00
2019-03-19T19:40:22.820Z,2.90
2019-03-19T19:42:51.948Z,2.80
2019-03-19T19:45:21.343Z,2.80
2019-03-19T19:47:50.420Z,2.80
2019-03-19T19:50:19.514Z,2.90
2019-03-19T19:52:48.629Z,2.90
2019-03-19T19:55:17.645Z,2.90
2019-03-19T19:57:49.014Z,2.80
2019-03-19T20:00:18.360Z,2.80
2019-03-19T20:02:47.480Z,2.90
2019-03-19T20:05:16.617Z,2.80
2019-03-19T20:07:45.823Z,2.70
2019-03-19T20:10:16.556Z,2.60
2019-03-19T20:12:45.677Z,2.60
2019-03-19T20:15:14.899Z,2.60
2019-03-19T20:17:43.983Z,2.40
2019-03-19T20:20:14.688Z,2.40
2019-03-19T20:22:44.803Z,2.40
2019-03-19T20:25:14.007Z,2.30
2019-03-19T20:27:43.208Z,2.20
2019-03-19T20:30:14.614Z,2.20
2019-03-19T20:32:43.782Z,1.90
2019-03-19T20:35:13.070Z,1.90
2019-03-19T20:37:42.172Z,1.70
2019-03-19T20:40:11.917Z,1.70
2019-03-19T20:42:41.171Z,1.60
2019-03-19T20:45:11.035Z,1.50
2019-03-19T20:47:40.171Z,1.50
2019-03-19T20:50:12.528Z,1.40
2019-03-19T20:52:41.979Z,1.40
2019-03-19T20:55:11.343Z,1.30
2019-03-19T20:57:40.503Z,1.30
2019-03-19T21:00:12.023Z,1.30
2019-03-19T21:02:41.351Z,1.20
2019-03-19T21:05:10.438Z,1.10
2019-03-19T21:07:40.367Z,1.10
2019-03-19T21:10:11.909Z,1.00
2019-03-19T21:12:41.069Z,0.90
2019-03-19T21:15:15.875Z,0.90
2019-03-19T21:17:44.908Z,0.90
2019-03-19T21:20:14.042Z,0.80
2019-03-19T21:22:43.563Z,0.80
2019-03-19T21:25:12.698Z,0.80
2019-03-19T21:27:41.838Z,0.70
2019-03-19T21:30:11.428Z,0.70
2019-03-19T21:32:40.687Z,0.70
2019-03-19T21:35:09.929Z,0.60
2019-03-19T21:37:39.102Z,0.60
2019-03-19T21:40:10.863Z,0.50
2019-03-19T21:42:40.261Z,0.60
2019-03-19T21:45:10.270Z,0.70
2019-03-19T21:47:40.140Z,0.60
2019-03-19T21:50:10.691Z,0.70
2019-03-19T21:52:40.600Z,0.60
2019-03-19T21:55:09.870Z,0.60
2019-03-19T21:57:38.936Z,0.80
2019-03-19T22:00:10.862Z,0.70
2019-03-19T22:02:42.223Z,0.80
2019-03-19T22:05:11.391Z,0.60
2019-03-19T22:07:40.523Z,0.50
2019-03-19T22:10:11.666Z,0.50
2019-03-19T22:12:40.858Z,0.50
2019-03-19T22:15:13.589Z,1.10
2019-03-19T22:17:43.161Z,0.40
2019-03-19T22:20:12.214Z,0.30
2019-03-19T22:22:41.133Z,0.20
2019-03-19T22:25:10.846Z,0.10
2019-03-19T22:27:39.893Z,0.10
2019-03-19T22:30:10.965Z,0.10
2019-03-19T22:32:40.225Z,-0.20
2019-03-19T22:35:09.201Z,-0.10
2019-03-19T22:37:38.261Z,-0.10
2019-03-19T22:40:08.844Z,-0.20
2019-03-19T22:42:37.912Z,-0.10
2019-03-19T22:45:08.195Z,-0.30
2019-03-19T22:47:38.388Z,-0.40
2019-03-19T22:50:08.186Z,-0.30
2019-03-19T22:52:38.019Z,-0.40
2019-03-19T22:55:07.934Z,-0.30
2019-03-19T22:57:37.187Z,-0.40
2019-03-19T23:00:09.080Z,-0.20
2019-03-19T23:02:38.153Z,-0.40
2019-03-19T23:05:07.173Z,-0.30
2019-03-19T23:07:36.092Z,-0.30
2019-03-19T23:10:05.466Z,-0.50
2019-03-19T23:12:35.224Z,-0.50
2019-03-19T23:15:04.452Z,-0.50
2019-03-19T23:17:33.939Z,-0.50
2019-03-19T23:20:02.966Z,-0.50
2019-03-19T23:22:31.832Z,-0.60
2019-03-19T23:25:01.135Z,-0.60
2019-03-19T23:27:30.247Z,-0.70
2019-03-19T23:29:59.254Z,-0.60
2019-03-19T23:32:28.259Z,-0.60
2019-03-19T23:34:57.297Z,-0.60
2019-03-19T23:37:26.624Z,-0.60
2019-03-19T23:39:55.601Z,-0.70
2019-03-19T23:42:24.568Z,-0.60
2019-03-19T23:44:54.300Z,-0.60
2019-03-19T23:47:23.388Z,-0.70
2019-03-19T23:49:52.441Z,-0.70
2019-03-19T23:52:21.521Z,-0.80
2019-03-19T23:54:51.843Z,-0.70
2019-03-19T23:57:21.716Z,-0.70
2019-03-19T23:59:50.642Z,-0.80
